sensor_id;sensor_type;location;lat;lon;timestamp;temperature;humidity
13892;DHT22;7016;48.172;8.058;2022-12-29T00:01:15;12.50;99.90
13892;DHT22;7016;48.172;8.058;2022-12-29T00:03:41;12.40;99.90
13892;DHT22;7016;48.172;8.058;2022-12-29T00:06:07;12.50;99.90
13892;DHT22;7016;48.172;8.058;2022-12-29T00:08:33;12.50;99.90
13892;DHT22;7016;48.172;8.058;2022-12-29T00:11:33;12.50;99.90
13892;DHT22;7016;48.172;8.058;2022-12-29T00:13:59;12.50;99.90
13892;DHT22;7016;48.172;8.058;2022-12-29T00:16:45;12.50;99.90
13892;DHT22;7016;48.172;8.058;2022-12-29T00:19:12;12.50;99.90
13892;DHT22;7016;48.172;8.058;2022-12-29T00:21:57;12.50;99.90
13892;DHT22;7016;48.172;8.058;2022-12-29T00:24:43;12.50;99.90
13892;DHT22;7016;48.172;8.058;2022-12-29T00:27:31;12.50;99.90
13892;DHT22;7016;48.172;8.058;2022-12-29T00:30:21;12.60;99.90
13892;DHT22;7016;48.172;8.058;2022-12-29T00:33:17;12.60;99.90
13892;DHT22;7016;48.172;8.058;2022-12-29T00:38:39;12.50;99.90
13892;DHT22;7016;48.172;8.058;2022-12-29T00:41:24;12.50;99.90
13892;DHT22;7016;48.172;8.058;2022-12-29T00:44:10;12.50;99.90
13892;DHT22;7016;48.172;8.058;2022-12-29T00:46:38;12.50;99.90
13892;DHT22;7016;48.172;8.058;2022-12-29T00:49:05;12.50;99.90
13892;DHT22;7016;48.172;8.058;2022-12-29T00:51:50;12.50;99.90
13892;DHT22;7016;48.172;8.058;2022-12-29T00:54:16;12.50;99.90
13892;DHT22;7016;48.172;8.058;2022-12-29T00:56:41;12.50;99.90
13892;DHT22;7016;48.172;8.058;2022-12-29T00:59:09;12.50;99.90
13892;DHT22;7016;48.172;8.058;2022-12-29T01:01:36;12.50;99.90
13892;DHT22;7016;48.172;8.058;2022-12-29T01:04:03;12.50;99.90
13892;DHT22;7016;48.172;8.058;2022-12-29T01:06:29;12.50;99.90
13892;DHT22;7016;48.172;8.058;2022-12-29T01:08:55;12.50;99.90
13892;DHT22;7016;48.172;8.058;2022-12-29T01:11:39;12.50;99.90
13892;DHT22;7016;48.172;8.058;2022-12-29T01:14:05;12.50;99.90
13892;DHT22;7016;48.172;8.058;2022-12-29T01:16:31;12.50;99.90
13892;DHT22;7016;48.172;8.058;2022-12-29T01:18:57;12.50;99.90
13892;DHT22;7016;48.172;8.058;2022-12-29T01:21:23;12.50;99.90
13892;DHT22;7016;48.172;8.058;2022-12-29T01:23:49;12.50;99.90
13892;DHT22;7016;48.172;8.058;2022-12-29T01:26:16;12.60;99.90
13892;DHT22;7016;48.172;8.058;2022-12-29T01:28:42;12.50;99.90
13892;DHT22;7016;48.172;8.058;2022-12-29T01:31:13;12.50;99.90
13892;DHT22;7016;48.172;8.058;2022-12-29T01:33:39;12.50;99.90
13892;DHT22;7016;48.172;8.058;2022-12-29T01:36:08;12.50;99.90
13892;DHT22;7016;48.172;8.058;2022-12-29T01:38:35;12.50;99.90
13892;DHT22;7016;48.172;8.058;2022-12-29T01:41:01;12.40;99.90
13892;DHT22;7016;48.172;8.058;2022-12-29T01:46:15;12.40;99.90
13892;DHT22;7016;48.172;8.058;2022-12-29T01:48:45;12.30;99.90
13892;DHT22;7016;48.172;8.058;2022-12-29T01:51:11;12.30;99.90
13892;DHT22;7016;48.172;8.058;2022-12-29T01:53:37;12.40;99.90
13892;DHT22;7016;48.172;8.058;2022-12-29T01:56:07;12.30;99.90
13892;DHT22;7016;48.172;8.058;2022-12-29T01:58:39;12.30;99.90
13892;DHT22;7016;48.172;8.058;2022-12-29T02:01:06;12.30;99.90
13892;DHT22;7016;48.172;8.058;2022-12-29T02:03:33;12.30;99.90
13892;DHT22;7016;48.172;8.058;2022-12-29T02:08:30;12.30;99.90
13892;DHT22;7016;48.172;8.058;2022-12-29T02:10:57;12.20;99.90
13892;DHT22;7016;48.172;8.058;2022-12-29T02:13:27;12.20;99.90
13892;DHT22;7016;48.172;8.058;2022-12-29T02:18:25;12.20;99.90
13892;DHT22;7016;48.172;8.058;2022-12-29T02:24:25;12.20;99.90
13892;DHT22;7016;48.172;8.058;2022-12-29T02:44:59;12.20;99.90
13892;DHT22;7016;48.172;8.058;2022-12-29T02:50:35;12.10;99.90
13892;DHT22;7016;48.172;8.058;2022-12-29T02:53:06;12.10;99.90
13892;DHT22;7016;48.172;8.058;2022-12-29T02:55:33;12.10;99.90
13892;DHT22;7016;48.172;8.058;2022-12-29T02:58:21;12.10;99.90
13892;DHT22;7016;48.172;8.058;2022-12-29T03:03:47;12.20;99.90
13892;DHT22;7016;48.172;8.058;2022-12-29T03:06:38;12.20;99.90
13892;DHT22;7016;48.172;8.058;2022-12-29T03:12:23;12.10;99.90
13892;DHT22;7016;48.172;8.058;2022-12-29T03:15:06;12.10;99.90
13892;DHT22;7016;48.172;8.058;2022-12-29T03:20:23;12.10;99.90
13892;DHT22;7016;48.172;8.058;2022-12-29T03:22:52;12.10;99.90
13892;DHT22;7016;48.172;8.058;2022-12-29T03:25:29;12.00;99.90
13892;DHT22;7016;48.172;8.058;2022-12-29T03:27:58;12.00;99.90
13892;DHT22;7016;48.172;8.058;2022-12-29T03:30:28;12.00;99.90
13892;DHT22;7016;48.172;8.058;2022-12-29T03:33:03;12.00;99.90
13892;DHT22;7016;48.172;8.058;2022-12-29T03:35:34;12.00;99.90
13892;DHT22;7016;48.172;8.058;2022-12-29T03:38:09;11.90;99.90
13892;DHT22;7016;48.172;8.058;2022-12-29T03:40:38;11.90;99.90
13892;DHT22;7016;48.172;8.058;2022-12-29T03:43:06;11.90;99.90
13892;DHT22;7016;48.172;8.058;2022-12-29T03:45:32;11.90;99.90
13892;DHT22;7016;48.172;8.058;2022-12-29T03:47:58;11.90;99.90
13892;DHT22;7016;48.172;8.058;2022-12-29T03:50:23;11.90;99.90
13892;DHT22;7016;48.172;8.058;2022-12-29T03:52:49;12.00;99.90
13892;DHT22;7016;48.172;8.058;2022-12-29T03:55:15;12.00;99.90
13892;DHT22;7016;48.172;8.058;2022-12-29T03:57:41;12.00;99.90
13892;DHT22;7016;48.172;8.058;2022-12-29T04:00:08;12.00;99.90
13892;DHT22;7016;48.172;8.058;2022-12-29T04:02:34;12.10;99.90
13892;DHT22;7016;48.172;8.058;2022-12-29T04:05:00;12.00;99.90
13892;DHT22;7016;48.172;8.058;2022-12-29T04:07:25;12.00;99.90
13892;DHT22;7016;48.172;8.058;2022-12-29T04:09:51;12.00;99.90
13892;DHT22;7016;48.172;8.058;2022-12-29T04:12:17;12.00;99.90
13892;DHT22;7016;48.172;8.058;2022-12-29T04:14:42;12.10;99.90
13892;DHT22;7016;48.172;8.058;2022-12-29T04:17:08;12.10;99.90
13892;DHT22;7016;48.172;8.058;2022-12-29T04:19:34;12.10;99.90
13892;DHT22;7016;48.172;8.058;2022-12-29T04:21:59;12.00;99.90
13892;DHT22;7016;48.172;8.058;2022-12-29T04:24:25;12.10;99.90
13892;DHT22;7016;48.172;8.058;2022-12-29T04:26:51;12.10;99.90
13892;DHT22;7016;48.172;8.058;2022-12-29T04:29:17;12.10;99.90
13892;DHT22;7016;48.172;8.058;2022-12-29T04:31:42;12.00;99.90
13892;DHT22;7016;48.172;8.058;2022-12-29T04:34:08;12.00;99.90
13892;DHT22;7016;48.172;8.058;2022-12-29T04:36:34;12.00;99.90
13892;DHT22;7016;48.172;8.058;2022-12-29T04:38:59;12.00;99.90
13892;DHT22;7016;48.172;8.058;2022-12-29T04:41:25;12.00;99.90
13892;DHT22;7016;48.172;8.058;2022-12-29T04:43:51;12.00;99.90
13892;DHT22;7016;48.172;8.058;2022-12-29T04:46:17;12.00;99.90
13892;DHT22;7016;48.172;8.058;2022-12-29T04:48:43;12.00;99.90
13892;DHT22;7016;48.172;8.058;2022-12-29T04:51:08;12.00;99.90
13892;DHT22;7016;48.172;8.058;2022-12-29T04:53:34;12.00;99.90
13892;DHT22;7016;48.172;8.058;2022-12-29T04:56:00;12.00;99.90
13892;DHT22;7016;48.172;8.058;2022-12-29T04:58:26;12.00;99.90
13892;DHT22;7016;48.172;8.058;2022-12-29T05:00:52;11.60;99.90
13892;DHT22;7016;48.172;8.058;2022-12-29T05:03:17;12.10;99.90
13892;DHT22;7016;48.172;8.058;2022-12-29T05:05:43;12.10;99.90
13892;DHT22;7016;48.172;8.058;2022-12-29T05:08:09;12.10;99.90
13892;DHT22;7016;48.172;8.058;2022-12-29T05:10:35;12.10;99.90
13892;DHT22;7016;48.172;8.058;2022-12-29T05:13:00;12.10;99.90
13892;DHT22;7016;48.172;8.058;2022-12-29T05:15:26;12.10;99.90
13892;DHT22;7016;48.172;8.058;2022-12-29T05:17:52;12.10;99.90
13892;DHT22;7016;48.172;8.058;2022-12-29T05:20:18;12.10;99.90
13892;DHT22;7016;48.172;8.058;2022-12-29T05:22:43;12.10;99.90
13892;DHT22;7016;48.172;8.058;2022-12-29T05:25:10;12.10;99.90
13892;DHT22;7016;48.172;8.058;2022-12-29T05:27:35;12.10;99.90
13892;DHT22;7016;48.172;8.058;2022-12-29T05:30:01;12.20;99.90
13892;DHT22;7016;48.172;8.058;2022-12-29T05:32:27;12.20;99.90
13892;DHT22;7016;48.172;8.058;2022-12-29T05:34:53;12.10;99.90
13892;DHT22;7016;48.172;8.058;2022-12-29T05:37:18;12.20;99.90
13892;DHT22;7016;48.172;8.058;2022-12-29T05:39:44;12.20;99.90
13892;DHT22;7016;48.172;8.058;2022-12-29T05:42:10;12.20;99.90
13892;DHT22;7016;48.172;8.058;2022-12-29T05:44:36;12.30;99.90
13892;DHT22;7016;48.172;8.058;2022-12-29T05:47:01;12.30;99.90
13892;DHT22;7016;48.172;8.058;2022-12-29T05:49:27;12.30;99.90
13892;DHT22;7016;48.172;8.058;2022-12-29T05:51:53;12.40;99.90
13892;DHT22;7016;48.172;8.058;2022-12-29T05:54:18;12.30;99.90
13892;DHT22;7016;48.172;8.058;2022-12-29T05:56:44;12.40;99.90
13892;DHT22;7016;48.172;8.058;2022-12-29T05:59:10;12.40;99.90
13892;DHT22;7016;48.172;8.058;2022-12-29T06:01:35;12.40;99.90
13892;DHT22;7016;48.172;8.058;2022-12-29T06:04:01;12.50;99.90
13892;DHT22;7016;48.172;8.058;2022-12-29T06:06:27;12.50;99.90
13892;DHT22;7016;48.172;8.058;2022-12-29T06:08:53;12.50;99.90
13892;DHT22;7016;48.172;8.058;2022-12-29T06:11:18;12.60;99.90
13892;DHT22;7016;48.172;8.058;2022-12-29T06:13:44;12.50;99.90
13892;DHT22;7016;48.172;8.058;2022-12-29T06:16:10;12.60;99.90
13892;DHT22;7016;48.172;8.058;2022-12-29T06:18:35;12.60;99.90
13892;DHT22;7016;48.172;8.058;2022-12-29T06:21:03;12.50;99.90
13892;DHT22;7016;48.172;8.058;2022-12-29T06:23:28;12.50;99.90
13892;DHT22;7016;48.172;8.058;2022-12-29T06:25:54;12.50;99.90
13892;DHT22;7016;48.172;8.058;2022-12-29T06:28:20;12.60;99.90
13892;DHT22;7016;48.172;8.058;2022-12-29T06:30:46;12.60;99.90
13892;DHT22;7016;48.172;8.058;2022-12-29T06:33:13;12.60;99.90
13892;DHT22;7016;48.172;8.058;2022-12-29T06:35:39;12.10;99.90
13892;DHT22;7016;48.172;8.058;2022-12-29T06:38:05;12.50;99.90
13892;DHT22;7016;48.172;8.058;2022-12-29T06:40:31;12.60;99.90
13892;DHT22;7016;48.172;8.058;2022-12-29T06:42:57;12.50;99.90
13892;DHT22;7016;48.172;8.058;2022-12-29T06:45:23;12.60;99.90
13892;DHT22;7016;48.172;8.058;2022-12-29T06:47:49;12.50;99.90
13892;DHT22;7016;48.172;8.058;2022-12-29T06:50:15;12.60;99.90
13892;DHT22;7016;48.172;8.058;2022-12-29T06:52:41;12.60;99.90
13892;DHT22;7016;48.172;8.058;2022-12-29T06:55:07;12.60;99.90
13892;DHT22;7016;48.172;8.058;2022-12-29T06:57:33;12.60;99.90
13892;DHT22;7016;48.172;8.058;2022-12-29T06:59:58;12.60;99.90
13892;DHT22;7016;48.172;8.058;2022-12-29T07:02:24;12.70;99.90
13892;DHT22;7016;48.172;8.058;2022-12-29T07:04:53;12.60;99.90
13892;DHT22;7016;48.172;8.058;2022-12-29T07:07:19;12.60;99.90
13892;DHT22;7016;48.172;8.058;2022-12-29T07:09:46;12.70;99.90
13892;DHT22;7016;48.172;8.058;2022-12-29T07:12:12;12.70;99.90
13892;DHT22;7016;48.172;8.058;2022-12-29T07:14:37;12.70;99.90
13892;DHT22;7016;48.172;8.058;2022-12-29T07:17:06;12.70;99.90
13892;DHT22;7016;48.172;8.058;2022-12-29T07:19:33;12.80;99.90
13892;DHT22;7016;48.172;8.058;2022-12-29T07:21:59;12.80;99.90
13892;DHT22;7016;48.172;8.058;2022-12-29T07:24:24;12.80;99.90
13892;DHT22;7016;48.172;8.058;2022-12-29T07:26:53;12.90;99.90
13892;DHT22;7016;48.172;8.058;2022-12-29T07:29:19;12.90;99.90
13892;DHT22;7016;48.172;8.058;2022-12-29T07:31:45;12.90;99.90
13892;DHT22;7016;48.172;8.058;2022-12-29T07:34:10;12.90;99.90
13892;DHT22;7016;48.172;8.058;2022-12-29T07:36:36;12.80;99.90
13892;DHT22;7016;48.172;8.058;2022-12-29T07:39:02;12.90;99.90
13892;DHT22;7016;48.172;8.058;2022-12-29T07:41:29;12.90;99.90
13892;DHT22;7016;48.172;8.058;2022-12-29T07:43:54;12.90;99.90
13892;DHT22;7016;48.172;8.058;2022-12-29T07:46:20;13.00;99.90
13892;DHT22;7016;48.172;8.058;2022-12-29T07:48:47;12.90;99.90
13892;DHT22;7016;48.172;8.058;2022-12-29T07:51:12;12.90;99.90
13892;DHT22;7016;48.172;8.058;2022-12-29T07:53:38;12.90;99.90
13892;DHT22;7016;48.172;8.058;2022-12-29T07:56:04;12.90;99.90
13892;DHT22;7016;48.172;8.058;2022-12-29T07:58:30;12.90;99.90
13892;DHT22;7016;48.172;8.058;2022-12-29T08:00:56;12.90;99.90
13892;DHT22;7016;48.172;8.058;2022-12-29T08:03:22;12.90;99.90
13892;DHT22;7016;48.172;8.058;2022-12-29T08:05:48;12.90;99.90
13892;DHT22;7016;48.172;8.058;2022-12-29T08:08:14;12.70;99.90
13892;DHT22;7016;48.172;8.058;2022-12-29T08:10:40;13.10;99.90
13892;DHT22;7016;48.172;8.058;2022-12-29T08:13:05;12.90;99.90
13892;DHT22;7016;48.172;8.058;2022-12-29T08:15:31;12.80;99.90
13892;DHT22;7016;48.172;8.058;2022-12-29T08:17:57;12.80;99.90
13892;DHT22;7016;48.172;8.058;2022-12-29T08:20:23;12.80;99.90
13892;DHT22;7016;48.172;8.058;2022-12-29T08:22:48;12.70;99.90
13892;DHT22;7016;48.172;8.058;2022-12-29T08:25:14;12.70;99.90
13892;DHT22;7016;48.172;8.058;2022-12-29T08:27:40;12.70;99.90
13892;DHT22;7016;48.172;8.058;2022-12-29T08:30:06;12.70;99.90
13892;DHT22;7016;48.172;8.058;2022-12-29T08:32:32;12.70;99.90
13892;DHT22;7016;48.172;8.058;2022-12-29T08:34:59;12.70;99.90
13892;DHT22;7016;48.172;8.058;2022-12-29T08:37:24;13.00;99.90
13892;DHT22;7016;48.172;8.058;2022-12-29T08:39:50;12.70;99.90
13892;DHT22;7016;48.172;8.058;2022-12-29T08:42:16;12.80;99.90
13892;DHT22;7016;48.172;8.058;2022-12-29T08:44:42;12.70;99.90
13892;DHT22;7016;48.172;8.058;2022-12-29T08:47:09;12.70;99.90
13892;DHT22;7016;48.172;8.058;2022-12-29T08:49:35;12.80;99.90
13892;DHT22;7016;48.172;8.058;2022-12-29T08:52:01;12.70;99.90
13892;DHT22;7016;48.172;8.058;2022-12-29T08:54:27;12.70;99.90
13892;DHT22;7016;48.172;8.058;2022-12-29T08:56:53;12.70;99.90
13892;DHT22;7016;48.172;8.058;2022-12-29T08:59:19;12.80;99.90
13892;DHT22;7016;48.172;8.058;2022-12-29T09:01:45;12.70;99.90
13892;DHT22;7016;48.172;8.058;2022-12-29T09:04:10;12.70;99.90
13892;DHT22;7016;48.172;8.058;2022-12-29T09:06:36;12.70;99.90
13892;DHT22;7016;48.172;8.058;2022-12-29T09:09:02;12.70;99.90
13892;DHT22;7016;48.172;8.058;2022-12-29T09:11:28;12.60;99.90
13892;DHT22;7016;48.172;8.058;2022-12-29T09:13:53;12.60;99.90
13892;DHT22;7016;48.172;8.058;2022-12-29T09:16:22;12.70;99.90
13892;DHT22;7016;48.172;8.058;2022-12-29T09:18:48;12.70;99.90
13892;DHT22;7016;48.172;8.058;2022-12-29T09:21:14;12.60;99.90
13892;DHT22;7016;48.172;8.058;2022-12-29T09:23:40;12.70;99.90
13892;DHT22;7016;48.172;8.058;2022-12-29T09:26:06;12.70;99.90
13892;DHT22;7016;48.172;8.058;2022-12-29T09:28:33;12.70;99.90
13892;DHT22;7016;48.172;8.058;2022-12-29T09:30:59;12.70;99.90
13892;DHT22;7016;48.172;8.058;2022-12-29T09:33:25;13.60;99.90
13892;DHT22;7016;48.172;8.058;2022-12-29T09:35:56;12.70;99.90
13892;DHT22;7016;48.172;8.058;2022-12-29T09:38:23;12.70;99.90
13892;DHT22;7016;48.172;8.058;2022-12-29T09:41:08;12.70;99.90
13892;DHT22;7016;48.172;8.058;2022-12-29T09:51:40;12.70;99.90
13892;DHT22;7016;48.172;8.058;2022-12-29T09:55:25;12.80;99.90
13892;DHT22;7016;48.172;8.058;2022-12-29T09:57:52;12.80;99.90
13892;DHT22;7016;48.172;8.058;2022-12-29T10:00:23;12.80;99.90
13892;DHT22;7016;48.172;8.058;2022-12-29T10:02:56;12.80;99.90
13892;DHT22;7016;48.172;8.058;2022-12-29T10:25:02;12.50;99.90
13892;DHT22;7016;48.172;8.058;2022-12-29T10:27:37;12.50;99.90
13892;DHT22;7016;48.172;8.058;2022-12-29T10:30:03;12.50;99.90
13892;DHT22;7016;48.172;8.058;2022-12-29T10:35:09;12.50;99.90
13892;DHT22;7016;48.172;8.058;2022-12-29T10:43:34;12.50;99.90
13892;DHT22;7016;48.172;8.058;2022-12-29T10:46:05;12.50;99.90
13892;DHT22;7016;48.172;8.058;2022-12-29T10:48:35;12.50;99.90
13892;DHT22;7016;48.172;8.058;2022-12-29T10:51:06;12.60;99.90
13892;DHT22;7016;48.172;8.058;2022-12-29T10:53:44;12.60;99.90
13892;DHT22;7016;48.172;8.058;2022-12-29T10:59:29;12.60;99.90
13892;DHT22;7016;48.172;8.058;2022-12-29T11:04:52;12.50;99.90
13892;DHT22;7016;48.172;8.058;2022-12-29T11:07:21;12.40;99.90
13892;DHT22;7016;48.172;8.058;2022-12-29T11:09:47;12.40;99.90
13892;DHT22;7016;48.172;8.058;2022-12-29T11:12:26;12.20;99.90
13892;DHT22;7016;48.172;8.058;2022-12-29T11:15:06;12.30;99.90
13892;DHT22;7016;48.172;8.058;2022-12-29T11:17:46;12.10;99.90
13892;DHT22;7016;48.172;8.058;2022-12-29T11:22:57;12.00;99.90
13892;DHT22;7016;48.172;8.058;2022-12-29T11:25:23;12.10;99.90
13892;DHT22;7016;48.172;8.058;2022-12-29T11:28:03;12.20;99.90
13892;DHT22;7016;48.172;8.058;2022-12-29T11:30:37;12.20;99.90
13892;DHT22;7016;48.172;8.058;2022-12-29T11:33:03;12.20;99.90
13892;DHT22;7016;48.172;8.058;2022-12-29T11:35:40;12.30;99.90
13892;DHT22;7016;48.172;8.058;2022-12-29T11:38:23;12.40;99.90
13892;DHT22;7016;48.172;8.058;2022-12-29T11:40:51;12.10;99.90
13892;DHT22;7016;48.172;8.058;2022-12-29T11:43:38;12.10;99.90
13892;DHT22;7016;48.172;8.058;2022-12-29T11:46:05;12.20;99.90
13892;DHT22;7016;48.172;8.058;2022-12-29T11:48:41;12.20;99.90
13892;DHT22;7016;48.172;8.058;2022-12-29T11:51:08;12.10;99.90
13892;DHT22;7016;48.172;8.058;2022-12-29T11:53:45;12.20;99.90
13892;DHT22;7016;48.172;8.058;2022-12-29T11:56:16;12.10;99.90
13892;DHT22;7016;48.172;8.058;2022-12-29T11:58:42;12.10;99.90
13892;DHT22;7016;48.172;8.058;2022-12-29T12:04:01;12.10;99.90
13892;DHT22;7016;48.172;8.058;2022-12-29T12:06:27;12.10;99.90
13892;DHT22;7016;48.172;8.058;2022-12-29T12:09:02;12.10;99.90
13892;DHT22;7016;48.172;8.058;2022-12-29T12:11:34;12.10;99.90
13892;DHT22;7016;48.172;8.058;2022-12-29T12:14:18;12.10;99.90
13892;DHT22;7016;48.172;8.058;2022-12-29T12:16:55;12.20;99.90
13892;DHT22;7016;48.172;8.058;2022-12-29T12:19:45;12.10;99.90
13892;DHT22;7016;48.172;8.058;2022-12-29T12:25:31;12.20;99.90
13892;DHT22;7016;48.172;8.058;2022-12-29T12:28:09;12.20;99.90
13892;DHT22;7016;48.172;8.058;2022-12-29T12:30:44;12.30;99.90
13892;DHT22;7016;48.172;8.058;2022-12-29T12:33:33;12.30;99.90
13892;DHT22;7016;48.172;8.058;2022-12-29T12:36:22;12.30;99.90
13892;DHT22;7016;48.172;8.058;2022-12-29T12:39:06;12.30;99.90
13892;DHT22;7016;48.172;8.058;2022-12-29T12:56:22;12.30;99.90
13892;DHT22;7016;48.172;8.058;2022-12-29T13:02:00;12.30;99.90
13892;DHT22;7016;48.172;8.058;2022-12-29T13:07:13;12.40;99.90
13892;DHT22;7016;48.172;8.058;2022-12-29T13:10:00;12.40;99.90
13892;DHT22;7016;48.172;8.058;2022-12-29T13:15:55;12.20;99.90
13892;DHT22;7016;48.172;8.058;2022-12-29T13:23:31;12.20;99.90
13892;DHT22;7016;48.172;8.058;2022-12-29T13:26:20;12.30;99.90
13892;DHT22;7016;48.172;8.058;2022-12-29T13:37:07;12.40;99.90
13892;DHT22;7016;48.172;8.058;2022-12-29T13:39:39;12.40;99.90
13892;DHT22;7016;48.172;8.058;2022-12-29T13:42:06;12.30;99.90
13892;DHT22;7016;48.172;8.058;2022-12-29T13:44:35;12.40;99.90
13892;DHT22;7016;48.172;8.058;2022-12-29T13:47:15;12.40;99.90
13892;DHT22;7016;48.172;8.058;2022-12-29T13:49:43;11.70;99.90
13892;DHT22;7016;48.172;8.058;2022-12-29T14:00:40;12.40;99.90
13892;DHT22;7016;48.172;8.058;2022-12-29T14:05:45;12.30;99.90
13892;DHT22;7016;48.172;8.058;2022-12-29T14:08:16;12.40;99.90
13892;DHT22;7016;48.172;8.058;2022-12-29T14:10:48;12.40;99.90
13892;DHT22;7016;48.172;8.058;2022-12-29T14:13:14;12.30;99.90
13892;DHT22;7016;48.172;8.058;2022-12-29T14:15:43;12.40;99.90
13892;DHT22;7016;48.172;8.058;2022-12-29T14:20:37;12.50;99.90
13892;DHT22;7016;48.172;8.058;2022-12-29T14:23:27;12.50;99.90
13892;DHT22;7016;48.172;8.058;2022-12-29T14:28:29;12.40;99.90
13892;DHT22;7016;48.172;8.058;2022-12-29T14:30:57;12.40;99.90
13892;DHT22;7016;48.172;8.058;2022-12-29T14:33:24;12.40;99.90
13892;DHT22;7016;48.172;8.058;2022-12-29T14:35:53;12.40;99.90
13892;DHT22;7016;48.172;8.058;2022-12-29T14:38:22;12.40;99.90
13892;DHT22;7016;48.172;8.058;2022-12-29T14:40:49;12.40;99.90
13892;DHT22;7016;48.172;8.058;2022-12-29T14:43:24;12.40;99.90
13892;DHT22;7016;48.172;8.058;2022-12-29T14:46:01;12.40;99.90
13892;DHT22;7016;48.172;8.058;2022-12-29T14:48:34;12.40;99.90
13892;DHT22;7016;48.172;8.058;2022-12-29T14:51:01;12.40;99.90
13892;DHT22;7016;48.172;8.058;2022-12-29T14:53:48;12.40;99.90
13892;DHT22;7016;48.172;8.058;2022-12-29T14:56:34;12.30;99.90
13892;DHT22;7016;48.172;8.058;2022-12-29T14:59:03;12.40;99.90
13892;DHT22;7016;48.172;8.058;2022-12-29T15:01:46;12.40;99.90
13892;DHT22;7016;48.172;8.058;2022-12-29T15:04:40;12.40;99.90
13892;DHT22;7016;48.172;8.058;2022-12-29T15:07:10;12.40;99.90
13892;DHT22;7016;48.172;8.058;2022-12-29T15:09:41;12.30;99.90
13892;DHT22;7016;48.172;8.058;2022-12-29T15:12:22;12.30;99.90
13892;DHT22;7016;48.172;8.058;2022-12-29T15:14:54;12.30;99.90
13892;DHT22;7016;48.172;8.058;2022-12-29T15:19:49;12.30;99.90
13892;DHT22;7016;48.172;8.058;2022-12-29T15:22:15;12.30;99.90
13892;DHT22;7016;48.172;8.058;2022-12-29T15:24:42;13.70;99.90
13892;DHT22;7016;48.172;8.058;2022-12-29T15:27:13;12.30;99.90
13892;DHT22;7016;48.172;8.058;2022-12-29T15:29:42;12.20;99.90
13892;DHT22;7016;48.172;8.058;2022-12-29T15:32:19;12.20;99.90
13892;DHT22;7016;48.172;8.058;2022-12-29T15:34:50;12.10;99.90
13892;DHT22;7016;48.172;8.058;2022-12-29T15:37:23;12.10;99.90
13892;DHT22;7016;48.172;8.058;2022-12-29T15:39:50;12.20;99.90
13892;DHT22;7016;48.172;8.058;2022-12-29T15:45:11;12.00;99.90
13892;DHT22;7016;48.172;8.058;2022-12-29T15:47:39;12.00;99.90
13892;DHT22;7016;48.172;8.058;2022-12-29T15:50:16;12.00;99.90
13892;DHT22;7016;48.172;8.058;2022-12-29T15:52:43;12.00;99.90
13892;DHT22;7016;48.172;8.058;2022-12-29T15:55:29;12.10;99.90
13892;DHT22;7016;48.172;8.058;2022-12-29T15:57:58;12.00;99.90
13892;DHT22;7016;48.172;8.058;2022-12-29T16:00:31;12.10;99.90
13892;DHT22;7016;48.172;8.058;2022-12-29T16:02:59;12.10;99.90
13892;DHT22;7016;48.172;8.058;2022-12-29T16:05:34;12.10;99.90
13892;DHT22;7016;48.172;8.058;2022-12-29T16:08:02;12.10;99.90
13892;DHT22;7016;48.172;8.058;2022-12-29T16:10:46;12.00;99.90
13892;DHT22;7016;48.172;8.058;2022-12-29T16:13:43;12.00;99.90
13892;DHT22;7016;48.172;8.058;2022-12-29T16:16:28;12.10;99.90
13892;DHT22;7016;48.172;8.058;2022-12-29T16:18:56;12.00;99.90
13892;DHT22;7016;48.172;8.058;2022-12-29T16:21:28;12.00;99.90
13892;DHT22;7016;48.172;8.058;2022-12-29T16:24:01;12.00;99.90
13892;DHT22;7016;48.172;8.058;2022-12-29T16:26:27;11.90;99.90
13892;DHT22;7016;48.172;8.058;2022-12-29T16:28:59;11.80;99.90
13892;DHT22;7016;48.172;8.058;2022-12-29T16:31:35;11.90;99.90
13892;DHT22;7016;48.172;8.058;2022-12-29T16:34:13;12.00;99.90
13892;DHT22;7016;48.172;8.058;2022-12-29T16:37:04;11.90;99.90
13892;DHT22;7016;48.172;8.058;2022-12-29T16:39:30;12.00;99.90
13892;DHT22;7016;48.172;8.058;2022-12-29T16:41:57;11.80;99.90
13892;DHT22;7016;48.172;8.058;2022-12-29T16:44:28;11.80;99.90
13892;DHT22;7016;48.172;8.058;2022-12-29T16:47:04;11.80;99.90
13892;DHT22;7016;48.172;8.058;2022-12-29T16:49:32;11.80;99.90
13892;DHT22;7016;48.172;8.058;2022-12-29T16:51:58;11.70;99.90
13892;DHT22;7016;48.172;8.058;2022-12-29T16:54:29;11.80;99.90
13892;DHT22;7016;48.172;8.058;2022-12-29T16:56:56;11.80;99.90
13892;DHT22;7016;48.172;8.058;2022-12-29T17:01:55;11.80;99.90
13892;DHT22;7016;48.172;8.058;2022-12-29T17:04:21;11.80;99.90
13892;DHT22;7016;48.172;8.058;2022-12-29T17:06:47;11.90;99.90
13892;DHT22;7016;48.172;8.058;2022-12-29T17:09:26;11.90;99.90
13892;DHT22;7016;48.172;8.058;2022-12-29T17:11:56;11.90;99.90
13892;DHT22;7016;48.172;8.058;2022-12-29T17:17:33;11.90;99.90
13892;DHT22;7016;48.172;8.058;2022-12-29T17:20:21;11.80;99.90
13892;DHT22;7016;48.172;8.058;2022-12-29T17:22:48;11.80;99.90
13892;DHT22;7016;48.172;8.058;2022-12-29T17:25:16;11.90;99.90
13892;DHT22;7016;48.172;8.058;2022-12-29T17:27:48;11.90;99.90
13892;DHT22;7016;48.172;8.058;2022-12-29T17:30:18;11.80;99.90
13892;DHT22;7016;48.172;8.058;2022-12-29T17:35:21;11.60;99.90
13892;DHT22;7016;48.172;8.058;2022-12-29T17:37:47;11.70;99.90
13892;DHT22;7016;48.172;8.058;2022-12-29T17:40:26;11.60;99.90
13892;DHT22;7016;48.172;8.058;2022-12-29T17:42:53;11.60;99.90
13892;DHT22;7016;48.172;8.058;2022-12-29T17:45:31;11.60;99.90
13892;DHT22;7016;48.172;8.058;2022-12-29T17:47:58;11.60;99.90
13892;DHT22;7016;48.172;8.058;2022-12-29T17:50:28;11.50;99.90
13892;DHT22;7016;48.172;8.058;2022-12-29T17:53:02;11.60;99.90
13892;DHT22;7016;48.172;8.058;2022-12-29T17:55:29;11.50;99.90
13892;DHT22;7016;48.172;8.058;2022-12-29T17:57:55;11.40;99.90
13892;DHT22;7016;48.172;8.058;2022-12-29T18:00:26;11.40;99.90
13892;DHT22;7016;48.172;8.058;2022-12-29T18:02:53;11.40;99.90
13892;DHT22;7016;48.172;8.058;2022-12-29T18:05:28;11.50;99.90
13892;DHT22;7016;48.172;8.058;2022-12-29T18:07:57;11.50;99.90
13892;DHT22;7016;48.172;8.058;2022-12-29T18:10:25;11.60;99.90
13892;DHT22;7016;48.172;8.058;2022-12-29T18:12:54;11.60;99.90
13892;DHT22;7016;48.172;8.058;2022-12-29T18:15:25;11.50;99.90
13892;DHT22;7016;48.172;8.058;2022-12-29T18:17:58;11.50;99.90
13892;DHT22;7016;48.172;8.058;2022-12-29T18:20:24;11.60;99.90
13892;DHT22;7016;48.172;8.058;2022-12-29T18:22:49;11.60;99.90
13892;DHT22;7016;48.172;8.058;2022-12-29T18:25:46;11.60;99.90
13892;DHT22;7016;48.172;8.058;2022-12-29T18:28:10;11.60;99.90
13892;DHT22;7016;48.172;8.058;2022-12-29T18:30:36;11.50;99.90
13892;DHT22;7016;48.172;8.058;2022-12-29T18:33:02;11.50;99.90
13892;DHT22;7016;48.172;8.058;2022-12-29T18:35:37;11.60;99.90
13892;DHT22;7016;48.172;8.058;2022-12-29T18:38:03;11.70;99.90
13892;DHT22;7016;48.172;8.058;2022-12-29T18:40:31;11.50;99.90
13892;DHT22;7016;48.172;8.058;2022-12-29T18:42:57;11.50;99.90
13892;DHT22;7016;48.172;8.058;2022-12-29T18:45:23;11.50;99.90